createdAt,value
2022-11-30T00:05:20.172Z,7.43
2022-11-30T00:10:50.417Z,5.73
2022-11-30T00:13:39.648Z,5.97
2022-11-30T00:19:11.770Z,6.27
2022-11-30T00:25:01.550Z,7.50
2022-11-30T00:30:59.622Z,8.00
2022-11-30T00:33:48.213Z,7.53
2022-11-30T00:39:31.045Z,6.67
2022-11-30T00:42:17.467Z,7.00
2022-11-30T00:47:55.587Z,8.17
2022-11-30T00:50:44.669Z,7.60
2022-11-30T00:53:33.457Z,7.23
2022-11-30T00:59:11.205Z,7.30
2022-11-30T01:01:59.286Z,7.13
2022-11-30T01:07:36.142Z,6.10
2022-11-30T01:13:09.812Z,6.67
2022-11-30T01:18:40.802Z,6.70
2022-11-30T01:26:56.697Z,7.73
2022-11-30T01:29:45.393Z,7.03
2022-11-30T01:38:10.463Z,7.47
2022-11-30T02:03:31.960Z,5.47
2022-11-30T02:06:23.071Z,6.37
2022-11-30T02:23:55.435Z,6.90
2022-11-30T02:32:22.047Z,8.20
2022-11-30T02:35:11.338Z,7.40
2022-11-30T02:38:01.837Z,8.40
2022-11-30T02:40:50.260Z,7.93
2022-11-30T02:52:03.404Z,9.07
2022-11-30T02:54:51.633Z,9.87
2022-11-30T03:00:26.023Z,7.53
2022-11-30T03:03:14.448Z,8.23
2022-11-30T03:08:50.496Z,8.27
2022-11-30T03:14:29.636Z,8.53
2022-11-30T03:19:55.895Z,7.00
2022-11-30T03:25:24.081Z,7.83
2022-11-30T03:33:37.751Z,9.17
2022-11-30T03:39:15.527Z,7.07
2022-11-30T03:44:43.419Z,10.20
2022-11-30T03:50:18.335Z,9.40
2022-11-30T03:56:07.715Z,9.80
2022-11-30T04:01:40.914Z,9.67
2022-11-30T04:04:29.552Z,9.03
2022-11-30T04:10:08.390Z,8.33
2022-11-30T04:12:55.506Z,7.73
2022-11-30T04:18:31.241Z,8.00
2022-11-30T04:21:20.059Z,7.53
2022-11-30T04:26:55.219Z,9.07
2022-11-30T04:29:46.707Z,10.73
2022-11-30T04:35:22.147Z,8.07
2022-11-30T04:40:58.494Z,9.63
2022-11-30T04:43:48.242Z,9.90
2022-11-30T04:46:37.029Z,10.73
2022-11-30T04:49:28.277Z,11.47
2022-11-30T04:55:04.182Z,11.33
2022-11-30T04:57:52.808Z,12.07
2022-11-30T05:03:27.229Z,13.80
2022-11-30T05:08:58.421Z,12.60
2022-11-30T05:14:34.050Z,13.03
2022-11-30T05:17:23.135Z,11.83
2022-11-30T05:22:52.457Z,11.83
2022-11-30T05:28:26.533Z,13.47
2022-11-30T05:34:02.746Z,12.30
2022-11-30T05:36:51.019Z,13.57
2022-11-30T05:42:21.805Z,13.87
2022-11-30T05:47:59.871Z,11.93
2022-11-30T05:53:32.471Z,12.87
2022-11-30T05:56:22.148Z,14.93
2022-11-30T06:02:00.602Z,12.97
2022-11-30T06:04:49.915Z,14.20
2022-11-30T06:10:27.536Z,14.80
2022-11-30T06:18:46.404Z,14.13
2022-11-30T06:21:35.143Z,13.27
2022-11-30T06:27:02.918Z,14.73
2022-11-30T06:32:35.740Z,15.00
2022-11-30T06:38:04.445Z,13.90
2022-11-30T06:43:40.589Z,14.70
2022-11-30T06:46:36.684Z,15.60
2022-11-30T06:52:11.935Z,15.33
2022-11-30T06:57:54.935Z,17.73
2022-11-30T07:03:32.196Z,20.37
2022-11-30T07:09:01.941Z,22.57
2022-11-30T07:11:51.244Z,23.47
2022-11-30T07:17:25.817Z,24.13
2022-11-30T07:23:02.176Z,23.47
2022-11-30T07:26:09.200Z,24.20
2022-11-30T07:31:48.680Z,24.50
2022-11-30T07:37:23.772Z,24.47
2022-11-30T07:42:59.026Z,25.63
2022-11-30T07:51:22.717Z,25.63
2022-11-30T07:56:58.629Z,25.90
2022-11-30T07:59:47.544Z,25.93
2022-11-30T08:02:35.943Z,24.93
2022-11-30T08:08:12.283Z,27.47
2022-11-30T08:13:48.358Z,25.00
2022-11-30T08:22:04.413Z,25.57
2022-11-30T08:24:52.899Z,27.03
2022-11-30T08:30:25.228Z,26.63
2022-11-30T08:36:09.594Z,26.83
2022-11-30T08:41:46.963Z,28.87
2022-11-30T08:44:36.576Z,28.03
2022-11-30T08:50:17.173Z,27.93
2022-11-30T08:55:47.287Z,30.27
2022-11-30T09:01:21.324Z,29.30
2022-11-30T09:09:44.070Z,35.37
2022-11-30T09:15:28.967Z,36.57
2022-11-30T09:18:16.905Z,36.27
2022-11-30T09:23:46.765Z,37.67
2022-11-30T09:29:22.858Z,38.13
2022-11-30T09:34:53.031Z,37.90
2022-11-30T09:40:24.113Z,39.03
2022-11-30T09:45:58.410Z,31.00
2022-11-30T09:54:32.086Z,35.73
2022-11-30T09:57:27.058Z,33.87
2022-11-30T10:05:47.954Z,33.10
2022-11-30T10:11:42.604Z,33.43
2022-11-30T10:15:07.935Z,29.47
2022-11-30T10:20:55.238Z,31.20
2022-11-30T10:26:40.083Z,26.50
2022-11-30T10:32:18.105Z,22.87
2022-11-30T10:40:56.975Z,21.43
2022-11-30T10:43:47.351Z,21.93
2022-11-30T10:49:23.369Z,18.93
2022-11-30T10:55:04.927Z,19.27
2022-11-30T11:00:43.488Z,18.23
2022-11-30T11:06:24.747Z,16.40
2022-11-30T11:15:20.640Z,14.83
2022-11-30T11:21:07.496Z,13.40
2022-11-30T11:26:39.134Z,12.00
2022-11-30T11:29:32.844Z,11.10
2022-11-30T11:35:46.697Z,10.20
2022-11-30T11:41:34.624Z,9.53
2022-11-30T11:44:25.772Z,9.77
2022-11-30T11:47:27.228Z,9.63
2022-11-30T11:51:05.071Z,9.33
2022-11-30T11:56:14.951Z,10.73
2022-11-30T11:59:48.257Z,8.47
2022-11-30T12:05:23.571Z,10.97
2022-11-30T12:11:01.818Z,9.77
2022-11-30T12:13:53.092Z,12.17
2022-11-30T12:16:54.051Z,11.40
2022-11-30T12:22:50.322Z,10.77
2022-11-30T12:25:42.857Z,10.97
2022-11-30T12:31:21.890Z,9.87
2022-11-30T12:36:59.905Z,9.63
2022-11-30T12:42:42.251Z,10.70
2022-11-30T12:48:26.600Z,10.33
2022-11-30T12:54:10.311Z,9.33
2022-11-30T12:59:51.875Z,10.07
2022-11-30T13:05:45.217Z,9.83
2022-11-30T13:11:28.178Z,10.60
2022-11-30T13:17:13.447Z,12.43
2022-11-30T13:20:06.486Z,11.07
2022-11-30T13:22:59.227Z,10.73
2022-11-30T13:26:08.416Z,11.77
2022-11-30T13:31:53.079Z,12.10
2022-11-30T13:34:41.427Z,13.97
2022-11-30T13:40:26.457Z,16.67
2022-11-30T13:46:24.297Z,14.33
2022-11-30T13:52:22.036Z,14.73
2022-11-30T13:54:51.213Z,16.00
2022-11-30T14:07:41.807Z,18.43
2022-11-30T14:13:33.584Z,25.67
2022-11-30T14:19:14.284Z,21.10
2022-11-30T14:22:02.911Z,22.73
2022-11-30T14:24:52.510Z,22.40
2022-11-30T14:30:29.466Z,23.17
2022-11-30T14:36:11.729Z,21.53
2022-11-30T14:41:46.669Z,19.67
2022-11-30T14:50:27.165Z,18.27
2022-11-30T14:53:25.385Z,20.37
2022-11-30T14:59:09.914Z,22.10
2022-11-30T15:01:59.586Z,19.00
2022-11-30T15:07:36.921Z,17.23
2022-11-30T15:13:15.224Z,15.30
2022-11-30T15:16:07.881Z,17.77
2022-11-30T15:18:58.586Z,16.83
2022-11-30T15:24:38.253Z,14.33
2022-11-30T15:27:26.608Z,15.07
2022-11-30T15:36:18.631Z,17.33
2022-11-30T15:41:40.708Z,14.73
2022-11-30T15:47:32.592Z,15.73
2022-11-30T15:53:37.444Z,13.97
2022-11-30T15:56:27.977Z,13.77
2022-11-30T15:59:25.056Z,14.80
2022-11-30T16:05:33.421Z,15.03
2022-11-30T16:08:28.541Z,15.33
2022-11-30T16:14:11.120Z,15.43
2022-11-30T16:17:08.962Z,13.83
2022-11-30T16:23:22.498Z,13.30
2022-11-30T16:28:50.830Z,12.67
2022-11-30T16:31:39.202Z,13.40
2022-11-30T16:40:03.585Z,16.27
2022-11-30T16:45:38.668Z,15.23
2022-11-30T16:51:19.062Z,15.97
2022-11-30T16:54:09.164Z,16.27
2022-11-30T17:02:31.874Z,15.63
2022-11-30T17:08:10.420Z,15.77
2022-11-30T17:10:58.572Z,14.53
2022-11-30T17:16:29.198Z,18.00
2022-11-30T17:19:18.140Z,17.90
2022-11-30T17:27:37.379Z,16.70
2022-11-30T17:33:07.943Z,19.20
2022-11-30T17:38:45.236Z,19.67
2022-11-30T17:44:21.133Z,20.40
2022-11-30T17:47:10.039Z,18.93
2022-11-30T17:49:58.923Z,26.93
2022-11-30T17:52:47.065Z,24.27
2022-11-30T17:55:35.523Z,23.33
2022-11-30T18:01:07.360Z,23.43
2022-11-30T18:06:41.170Z,25.63
2022-11-30T18:15:00.673Z,24.27
2022-11-30T18:20:40.442Z,23.80
2022-11-30T18:26:29.080Z,22.13
2022-11-30T18:31:59.565Z,20.77
2022-11-30T18:37:33.287Z,22.53
2022-11-30T18:43:07.584Z,18.67
2022-11-30T18:48:43.218Z,22.37
2022-11-30T18:54:20.083Z,20.80
2022-11-30T19:02:41.829Z,20.40
2022-11-30T19:08:17.347Z,21.33
2022-11-30T19:16:47.369Z,24.50
2022-11-30T19:22:37.823Z,25.27
2022-11-30T19:25:26.057Z,24.20
2022-11-30T19:28:18.917Z,26.73
2022-11-30T19:34:17.382Z,26.57
2022-11-30T19:37:27.525Z,29.63
2022-11-30T19:46:27.194Z,23.37
2022-11-30T19:49:16.923Z,25.60
2022-11-30T19:59:37.106Z,25.10
2022-11-30T20:05:26.966Z,24.10
2022-11-30T20:11:21.651Z,23.97
2022-11-30T20:34:57.045Z,23.60
2022-11-30T20:40:43.520Z,24.27
2022-11-30T20:46:27.838Z,22.80
2022-11-30T20:52:13.968Z,24.47
2022-11-30T20:55:09.537Z,23.80
2022-11-30T21:01:24.525Z,21.37
2022-11-30T21:07:33.660Z,20.90
2022-11-30T21:13:23.273Z,20.87
2022-11-30T21:16:12.108Z,22.80
2022-11-30T21:19:01.926Z,18.77
2022-11-30T21:24:39.832Z,20.50
2022-11-30T21:30:14.604Z,20.70
2022-11-30T21:35:53.180Z,20.43
2022-11-30T21:41:34.365Z,20.60
2022-11-30T21:47:18.276Z,21.30
2022-11-30T21:50:10.646Z,21.37
2022-11-30T21:55:47.846Z,25.30
2022-11-30T21:58:37.605Z,24.77
2022-11-30T22:01:28.547Z,24.23
2022-11-30T22:04:38.920Z,26.20
2022-11-30T22:07:32.269Z,24.30
2022-11-30T22:10:36.564Z,24.50
2022-11-30T22:16:35.786Z,22.93
2022-11-30T22:22:42.519Z,24.93
2022-11-30T22:28:19.489Z,27.93
2022-11-30T22:33:56.719Z,26.03
2022-11-30T22:39:47.349Z,22.33
2022-11-30T22:42:38.043Z,22.63
2022-11-30T22:45:27.011Z,22.20
2022-11-30T22:50:56.512Z,22.67
2022-11-30T22:53:45.632Z,23.70
2022-11-30T22:59:16.324Z,23.77
2022-11-30T23:02:05.659Z,24.43
2022-11-30T23:04:54.595Z,25.20
2022-11-30T23:10:26.265Z,22.23
2022-11-30T23:13:14.683Z,22.87
2022-11-30T23:18:46.010Z,24.20
2022-11-30T23:21:40.995Z,24.93
2022-11-30T23:24:25.886Z,30.20
2022-11-30T23:27:15.930Z,25.00
2022-11-30T23:30:05.931Z,26.63
2022-11-30T23:35:45.807Z,26.60
2022-11-30T23:41:17.268Z,26.30
2022-11-30T23:49:37.047Z,25.20
2022-11-30T23:55:22.649Z,26.97
